createdAt,value
2023-05-23T00:00:15.502Z,18.80
2023-05-23T00:04:20.335Z,18.70
2023-05-23T00:08:23.391Z,18.70
2023-05-23T00:12:27.789Z,18.70
2023-05-23T00:16:31.331Z,18.60
2023-05-23T00:20:35.531Z,18.60
2023-05-23T00:24:38.441Z,18.60
2023-05-23T00:28:42.649Z,18.50
2023-05-23T00:32:45.610Z,18.60
2023-05-23T00:36:50.395Z,18.40
2023-05-23T00:40:53.886Z,18.40
2023-05-23T00:44:58.103Z,18.40
2023-05-23T00:49:00.980Z,18.40
2023-05-23T00:53:04.243Z,18.40
2023-05-23T00:57:07.964Z,18.40
2023-05-23T01:01:12.212Z,18.30
2023-05-23T01:05:17.620Z,18.30
2023-05-23T01:09:21.915Z,18.20
2023-05-23T01:13:32.660Z,18.20
2023-05-23T01:17:45.208Z,18.20
2023-05-23T01:21:53.031Z,18.20
2023-05-23T01:26:08.893Z,18.00
2023-05-23T01:30:14.914Z,17.90
2023-05-23T01:34:19.973Z,17.80
2023-05-23T01:38:22.845Z,17.80
2023-05-23T01:42:28.060Z,17.70
2023-05-23T01:46:33.882Z,17.60
2023-05-23T01:50:37.408Z,17.60
2023-05-23T01:54:42.530Z,17.60
2023-05-23T01:58:46.551Z,17.50
2023-05-23T02:02:51.043Z,17.40
2023-05-23T02:06:54.170Z,17.40
2023-05-23T02:10:58.201Z,17.40
2023-05-23T02:15:01.164Z,17.30
2023-05-23T02:19:05.491Z,17.30
2023-05-23T02:23:08.338Z,17.30
2023-05-23T02:27:12.985Z,17.30
2023-05-23T02:31:17.338Z,17.20
2023-05-23T02:35:21.870Z,17.10
2023-05-23T02:39:25.719Z,17.30
2023-05-23T02:43:29.125Z,17.20
2023-05-23T02:47:32.108Z,17.10
2023-05-23T02:51:36.391Z,17.10
2023-05-23T02:55:39.579Z,17.00
2023-05-23T02:59:42.727Z,17.00
2023-05-23T03:03:45.784Z,16.90
2023-05-23T03:07:51.976Z,17.00
2023-05-23T03:11:54.898Z,16.90
2023-05-23T03:15:57.758Z,16.80
2023-05-23T03:20:00.609Z,16.70
2023-05-23T03:24:04.903Z,16.70
2023-05-23T03:28:07.813Z,16.70
2023-05-23T03:32:10.702Z,16.50
2023-05-23T03:36:13.562Z,16.40
2023-05-23T03:40:18.661Z,16.40
2023-05-23T03:44:22.078Z,16.30
2023-05-23T03:48:25.081Z,16.40
2023-05-23T03:52:28.127Z,16.40
2023-05-23T03:56:32.408Z,16.30
2023-05-23T04:00:35.507Z,16.40
2023-05-23T04:04:41.287Z,16.60
2023-05-23T04:08:45.251Z,16.50
2023-05-23T04:12:49.666Z,16.50
2023-05-23T04:16:54.159Z,16.70
2023-05-23T04:20:57.295Z,16.70
2023-05-23T04:25:00.785Z,16.60
2023-05-23T04:29:09.029Z,16.70
2023-05-23T04:33:13.413Z,16.70
2023-05-23T04:37:17.398Z,16.70
2023-05-23T04:41:23.622Z,16.80
2023-05-23T04:45:44.101Z,16.80
2023-05-23T04:50:08.603Z,16.90
2023-05-23T04:54:12.332Z,17.10
2023-05-23T04:58:16.478Z,17.20
2023-05-23T05:02:21.127Z,17.30
2023-05-23T05:06:24.088Z,17.30
2023-05-23T05:10:28.218Z,17.40
2023-05-23T05:14:32.097Z,17.60
2023-05-23T05:18:37.510Z,17.60
2023-05-23T05:23:38.061Z,17.70
2023-05-23T05:27:43.697Z,17.80
2023-05-23T05:31:49.268Z,18.00
2023-05-23T05:35:53.467Z,18.00
2023-05-23T05:39:57.206Z,18.20
2023-05-23T05:44:00.723Z,18.20
2023-05-23T05:48:04.128Z,18.40
2023-05-23T05:52:09.842Z,18.60
2023-05-23T05:56:13.566Z,18.70
2023-05-23T06:00:19.061Z,18.60
2023-05-23T06:04:22.032Z,18.60
2023-05-23T06:08:27.364Z,18.80
2023-05-23T06:12:30.321Z,20.50
2023-05-23T06:16:33.308Z,22.90
2023-05-23T06:20:36.242Z,23.70
2023-05-23T06:24:43.931Z,22.90
2023-05-23T06:28:46.785Z,21.90
2023-05-23T06:32:50.003Z,21.80
2023-05-23T06:36:54.722Z,22.10
2023-05-23T06:40:58.963Z,22.10
2023-05-23T06:45:02.445Z,22.10
2023-05-23T06:49:14.458Z,22.20
2023-05-23T06:53:19.653Z,22.50
2023-05-23T06:57:25.912Z,22.40
2023-05-23T07:01:28.807Z,22.30
2023-05-23T07:05:33.387Z,22.10
2023-05-23T07:09:36.608Z,22.00
2023-05-23T07:13:47.303Z,22.40
2023-05-23T07:17:57.629Z,22.00
2023-05-23T07:22:02.286Z,21.70
2023-05-23T07:26:06.609Z,21.60
2023-05-23T07:30:33.379Z,21.50
2023-05-23T07:34:36.855Z,21.10
2023-05-23T07:38:39.977Z,20.90
2023-05-23T07:42:42.890Z,20.70
2023-05-23T07:46:47.248Z,20.50
2023-05-23T07:50:54.942Z,20.40
2023-05-23T07:54:59.520Z,20.50
2023-05-23T07:59:03.735Z,20.50
2023-05-23T08:03:08.273Z,20.40
2023-05-23T08:07:19.421Z,20.40
2023-05-23T08:11:28.732Z,20.40
2023-05-23T08:15:31.837Z,20.40
2023-05-23T08:19:45.296Z,20.50
2023-05-23T08:23:48.386Z,20.50
2023-05-23T08:27:51.349Z,20.60
2023-05-23T08:32:11.899Z,20.80
2023-05-23T08:36:16.760Z,20.90
2023-05-23T08:40:24.538Z,20.80
2023-05-23T08:44:35.162Z,20.70
2023-05-23T08:48:40.140Z,20.70
2023-05-23T08:52:51.550Z,20.70
2023-05-23T08:56:54.736Z,20.90
2023-05-23T09:00:58.857Z,21.30
2023-05-23T09:05:02.571Z,21.70
2023-05-23T09:09:07.305Z,21.50
2023-05-23T09:13:10.680Z,21.40
2023-05-23T09:17:27.874Z,21.30
2023-05-23T09:21:32.970Z,21.10
2023-05-23T09:25:57.436Z,20.90
2023-05-23T09:30:07.258Z,21.00
2023-05-23T09:34:10.876Z,20.90
2023-05-23T09:38:15.050Z,20.90
2023-05-23T09:42:23.582Z,20.80
2023-05-23T09:46:30.000Z,20.70
2023-05-23T09:50:34.384Z,20.80
2023-05-23T09:54:38.842Z,21.00
2023-05-23T09:58:46.581Z,21.00
2023-05-23T10:02:56.832Z,20.80
2023-05-23T10:07:06.937Z,20.70
2023-05-23T10:11:51.890Z,20.50
2023-05-23T10:16:01.364Z,20.50
2023-05-23T10:20:08.381Z,20.30
2023-05-23T10:24:12.541Z,20.30
2023-05-23T10:28:16.480Z,20.40
2023-05-23T10:32:21.603Z,20.60
2023-05-23T10:36:30.820Z,20.60
2023-05-23T10:40:44.286Z,20.90
2023-05-23T10:44:47.103Z,21.30
2023-05-23T10:48:57.730Z,21.00
2023-05-23T10:53:01.178Z,20.80
2023-05-23T10:57:05.012Z,21.50
2023-05-23T11:01:14.085Z,22.80
2023-05-23T11:05:25.091Z,23.90
2023-05-23T11:09:28.026Z,24.50
2023-05-23T11:13:56.269Z,24.60
2023-05-23T11:17:59.533Z,24.90
2023-05-23T11:22:06.134Z,25.10
2023-05-23T11:26:30.475Z,25.10
2023-05-23T11:30:33.743Z,25.20
2023-05-23T11:34:36.586Z,25.40
2023-05-23T11:38:40.904Z,25.50
2023-05-23T11:42:44.450Z,24.80
2023-05-23T11:47:00.488Z,25.30
2023-05-23T11:51:03.783Z,25.50
2023-05-23T11:55:10.819Z,26.30
2023-05-23T11:59:13.748Z,26.90
2023-05-23T12:03:16.841Z,26.60
2023-05-23T12:07:20.845Z,27.90
2023-05-23T12:11:26.251Z,29.50
2023-05-23T12:15:31.536Z,28.30
2023-05-23T12:19:34.662Z,28.60
2023-05-23T12:23:37.636Z,28.90
2023-05-23T12:27:44.271Z,28.90
2023-05-23T12:31:50.314Z,28.80
2023-05-23T12:35:54.642Z,27.50
2023-05-23T12:39:57.536Z,29.40
2023-05-23T12:44:03.358Z,29.00
2023-05-23T12:48:07.111Z,30.80
2023-05-23T12:52:10.126Z,31.30
2023-05-23T12:56:13.033Z,29.20
2023-05-23T13:00:17.952Z,30.20
2023-05-23T13:04:21.010Z,29.70
2023-05-23T13:08:24.096Z,28.40
2023-05-23T13:12:27.050Z,27.70
2023-05-23T13:16:31.502Z,27.90
2023-05-23T13:20:34.835Z,27.60
2023-05-23T13:24:38.149Z,28.00
2023-05-23T13:28:41.016Z,28.20
2023-05-23T13:32:45.430Z,27.50
2023-05-23T13:36:48.318Z,27.50
2023-05-23T13:40:51.741Z,27.70
2023-05-23T13:44:54.730Z,27.80
2023-05-23T13:48:58.945Z,27.40
2023-05-23T13:53:01.857Z,27.40
2023-05-23T13:57:04.974Z,27.00
2023-05-23T14:01:12.504Z,26.70
2023-05-23T14:05:19.409Z,26.40
2023-05-23T14:09:44.161Z,25.90
2023-05-23T14:13:46.987Z,25.70
2023-05-23T14:17:55.172Z,25.80
2023-05-23T14:21:59.431Z,25.90
2023-05-23T14:26:02.315Z,25.70
2023-05-23T14:30:06.104Z,25.90
2023-05-23T14:34:08.956Z,26.10
2023-05-23T14:38:13.220Z,26.00
2023-05-23T14:42:16.129Z,25.50
2023-05-23T14:46:19.181Z,25.30
2023-05-23T14:50:22.161Z,25.10
2023-05-23T14:54:26.536Z,24.80
2023-05-23T14:58:29.415Z,24.50
2023-05-23T15:02:32.386Z,24.30
2023-05-23T15:06:35.477Z,24.20
2023-05-23T15:10:39.824Z,24.10
2023-05-23T15:14:43.619Z,24.10
2023-05-23T15:18:46.614Z,24.10
2023-05-23T15:22:49.502Z,24.00
2023-05-23T15:26:54.089Z,24.10
2023-05-23T15:30:59.081Z,24.20
2023-05-23T15:35:01.935Z,24.40
2023-05-23T15:39:06.203Z,24.60
2023-05-23T15:43:10.407Z,24.60
2023-05-23T15:47:13.259Z,24.50
2023-05-23T15:51:16.423Z,24.40
2023-05-23T15:55:19.449Z,24.00
2023-05-23T15:59:23.637Z,23.80
2023-05-23T16:03:26.843Z,23.70
2023-05-23T16:07:29.761Z,23.40
2023-05-23T16:11:32.691Z,23.30
2023-05-23T16:15:37.090Z,23.10
2023-05-23T16:19:40.062Z,22.90
2023-05-23T16:23:42.998Z,22.70
2023-05-23T16:27:45.896Z,22.50
2023-05-23T16:31:50.166Z,22.50
2023-05-23T16:35:53.180Z,22.30
2023-05-23T16:39:56.064Z,22.20
2023-05-23T16:43:58.907Z,22.00
2023-05-23T16:48:03.198Z,21.90
2023-05-23T16:52:06.382Z,21.80
2023-05-23T16:56:09.253Z,21.60
2023-05-23T17:00:13.281Z,21.60
2023-05-23T17:04:20.229Z,21.40
2023-05-23T17:08:23.359Z,21.30
2023-05-23T17:12:26.929Z,21.20
2023-05-23T17:16:33.261Z,21.10
2023-05-23T17:20:38.021Z,20.90
2023-05-23T17:24:40.959Z,20.80
2023-05-23T17:28:43.857Z,20.80
2023-05-23T17:32:47.835Z,20.70
2023-05-23T17:36:52.785Z,20.60
2023-05-23T17:40:55.652Z,20.60
2023-05-23T17:44:58.935Z,20.50
2023-05-23T17:49:01.798Z,20.40
2023-05-23T17:53:06.254Z,20.30
2023-05-23T17:57:09.093Z,20.20
2023-05-23T18:01:15.825Z,20.20
2023-05-23T18:05:20.362Z,20.10
2023-05-23T18:09:24.575Z,20.10
2023-05-23T18:13:27.428Z,20.00
2023-05-23T18:17:30.572Z,20.00
2023-05-23T18:21:34.732Z,19.90
2023-05-23T18:25:39.064Z,19.90
2023-05-23T18:29:41.977Z,19.90
2023-05-23T18:33:44.913Z,19.80
2023-05-23T18:37:48.026Z,19.70
2023-05-23T18:41:52.353Z,19.60
2023-05-23T18:45:55.239Z,19.60
2023-05-23T18:49:58.066Z,19.50
2023-05-23T18:54:01.037Z,19.50
2023-05-23T18:58:05.332Z,19.30
2023-05-23T19:02:08.359Z,19.20
2023-05-23T19:06:11.603Z,19.20
2023-05-23T19:10:14.476Z,19.20
2023-05-23T19:14:18.731Z,19.10
2023-05-23T19:18:21.727Z,19.10
2023-05-23T19:22:24.991Z,19.00
2023-05-23T19:26:28.645Z,19.00
2023-05-23T19:30:32.893Z,19.00
2023-05-23T19:34:36.249Z,18.90
2023-05-23T19:38:39.121Z,18.80
2023-05-23T19:42:42.128Z,18.80
2023-05-23T19:46:46.381Z,18.70
2023-05-23T19:50:49.261Z,18.70
2023-05-23T19:54:52.101Z,18.70
2023-05-23T19:58:54.985Z,18.60
2023-05-23T20:02:59.222Z,18.60
2023-05-23T20:07:02.132Z,18.60
2023-05-23T20:11:05.104Z,18.50
2023-05-23T20:15:08.963Z,18.40
2023-05-23T20:19:13.257Z,18.40
2023-05-23T20:23:16.184Z,18.30
2023-05-23T20:27:19.095Z,18.20
2023-05-23T20:31:22.094Z,18.10
2023-05-23T20:35:26.841Z,18.00
2023-05-23T20:39:29.896Z,17.90
2023-05-23T20:43:33.357Z,17.90
2023-05-23T20:47:37.410Z,17.80
2023-05-23T20:51:41.802Z,17.80
2023-05-23T20:55:44.689Z,17.80
2023-05-23T20:59:47.548Z,17.70
2023-05-23T21:03:50.510Z,17.60
2023-05-23T21:07:54.714Z,17.60
2023-05-23T21:11:58.286Z,17.50
2023-05-23T21:16:01.155Z,17.40
2023-05-23T21:20:05.553Z,17.40
2023-05-23T21:24:09.973Z,17.30
2023-05-23T21:28:12.793Z,17.20
2023-05-23T21:32:16.187Z,17.20
2023-05-23T21:36:19.010Z,17.10
2023-05-23T21:40:25.227Z,17.00
2023-05-23T21:44:28.114Z,17.00
2023-05-23T21:48:30.916Z,17.00
2023-05-23T21:52:33.772Z,17.00
2023-05-23T21:56:38.008Z,17.00
2023-05-23T22:00:43.503Z,17.00
2023-05-23T22:04:46.489Z,16.90
2023-05-23T22:08:49.349Z,16.90
2023-05-23T22:12:53.548Z,16.80
2023-05-23T22:16:59.005Z,16.70
2023-05-23T22:21:01.881Z,16.70
2023-05-23T22:25:05.170Z,16.70
2023-05-23T22:29:09.383Z,16.60
2023-05-23T22:33:13.229Z,16.60
2023-05-23T22:37:16.855Z,16.60
2023-05-23T22:41:19.955Z,16.50
2023-05-23T22:45:24.241Z,16.50
2023-05-23T22:49:29.892Z,16.40
2023-05-23T22:53:32.741Z,16.40
2023-05-23T22:57:35.624Z,16.50
2023-05-23T23:01:39.964Z,16.40
2023-05-23T23:05:42.917Z,16.40
2023-05-23T23:09:46.078Z,16.40
2023-05-23T23:13:48.954Z,16.40
2023-05-23T23:17:53.253Z,16.30
2023-05-23T23:21:56.205Z,16.30
2023-05-23T23:25:59.542Z,16.30
2023-05-23T23:30:02.575Z,16.30
2023-05-23T23:34:06.841Z,16.10
2023-05-23T23:38:09.691Z,16.10
2023-05-23T23:42:12.942Z,16.10
2023-05-23T23:46:16.574Z,16.10
2023-05-23T23:50:21.391Z,16.00
2023-05-23T23:54:24.255Z,16.00
2023-05-23T23:58:27.128Z,16.00
